createdAt,value
2022-08-05T00:02:12.242Z,96742.16
2022-08-05T00:08:00.301Z,96740.28
2022-08-05T00:13:18.718Z,96733.78
2022-08-05T00:18:42.944Z,96745.91
2022-08-05T00:24:11.038Z,96736.38
2022-08-05T00:29:38.141Z,96735.19
2022-08-05T00:35:06.153Z,96730.31
2022-08-05T00:40:29.463Z,96726.44
2022-08-05T00:45:50.436Z,96718.09
2022-08-05T00:51:51.763Z,96722.63
2022-08-05T00:56:55.784Z,96716.53
2022-08-05T01:02:16.646Z,96713.88
2022-08-05T01:07:37.667Z,96713.16
2022-08-05T01:13:58.302Z,96706.31
2022-08-05T01:19:56.002Z,96715.38
2022-08-05T01:25:40.407Z,96712.13
2022-08-05T01:31:28.115Z,96697.84
2022-08-05T01:37:03.229Z,96701.38
2022-08-05T01:42:26.947Z,96698.75
2022-08-05T01:47:50.170Z,96700.03
2022-08-05T01:53:17.345Z,96687.38
2022-08-05T01:59:00.707Z,96684.09
2022-08-05T02:04:24.229Z,96682.94
2022-08-05T02:09:46.461Z,96681.06
2022-08-05T02:15:13.068Z,96675.81
2022-08-05T02:20:49.754Z,96667.69
2022-08-05T02:26:17.081Z,96666.94
2022-08-05T02:31:40.552Z,96667.16
2022-08-05T02:37:04.473Z,96669.44
2022-08-05T02:42:30.733Z,96660.09
2022-08-05T02:48:06.623Z,96661.53
2022-08-05T02:53:39.431Z,96649.47
2022-08-05T02:59:02.129Z,96647.00
2022-08-05T03:04:23.182Z,96641.72
2022-08-05T03:09:51.595Z,96640.94
2022-08-05T03:15:12.656Z,96646.53
2022-08-05T03:20:33.155Z,96645.94
2022-08-05T03:26:04.267Z,96640.06
2022-08-05T03:31:57.194Z,96647.06
2022-08-05T03:37:15.860Z,96633.00
2022-08-05T03:42:41.853Z,96638.38
2022-08-05T03:48:14.049Z,96642.69
2022-08-05T03:55:06.890Z,96641.69
2022-08-05T03:59:47.343Z,96643.91
2022-08-05T04:05:15.931Z,96638.78
2022-08-05T04:10:38.397Z,96638.34
2022-08-05T04:16:04.250Z,96629.88
2022-08-05T04:22:05.830Z,96627.25
2022-08-05T04:27:06.301Z,96618.53
2022-08-05T04:32:31.292Z,96622.94
2022-08-05T04:38:02.540Z,96620.47
2022-08-05T04:43:27.594Z,96630.50
2022-08-05T04:48:48.084Z,96633.00
2022-08-05T04:54:12.493Z,96639.00
2022-08-05T04:59:38.391Z,96643.50
2022-08-05T05:05:01.781Z,96639.69
2022-08-05T05:10:24.135Z,96643.72
2022-08-05T05:15:56.714Z,96647.88
2022-08-05T05:21:22.829Z,96635.75
2022-08-05T05:26:51.923Z,96641.53
2022-08-05T05:32:15.746Z,96642.59
2022-08-05T05:37:59.824Z,96646.06
2022-08-05T05:43:56.488Z,96648.22
2022-08-05T05:49:06.425Z,96638.91
2022-08-05T05:54:35.456Z,96643.81
2022-08-05T06:00:17.681Z,96641.72
2022-08-05T06:05:38.612Z,96642.81
2022-08-05T06:10:59.737Z,96640.41
2022-08-05T06:16:28.359Z,96644.97
2022-08-05T06:21:52.800Z,96637.72
2022-08-05T06:28:08.734Z,96635.44
2022-08-05T06:32:55.739Z,96633.59
2022-08-05T06:38:17.265Z,96641.66
2022-08-05T06:44:00.413Z,96648.56
2022-08-05T06:50:01.813Z,96642.63
2022-08-05T06:55:02.754Z,96645.47
2022-08-05T07:00:24.688Z,96651.88
2022-08-05T07:05:46.560Z,96650.66
2022-08-05T07:11:07.287Z,96645.75
2022-08-05T07:18:01.693Z,96651.97
2022-08-05T07:22:32.952Z,96643.25
2022-08-05T07:27:57.251Z,96640.06
2022-08-05T07:33:36.526Z,96636.00
2022-08-05T07:38:58.197Z,96645.13
2022-08-05T07:44:19.681Z,96643.72
2022-08-05T07:49:43.404Z,96645.28
2022-08-05T07:55:15.870Z,96646.69
2022-08-05T08:00:56.426Z,96640.78
2022-08-05T08:06:17.805Z,96646.75
2022-08-05T08:11:48.249Z,96644.56
2022-08-05T08:17:16.401Z,96639.59
2022-08-05T08:22:37.470Z,96636.13
2022-08-05T08:27:59.597Z,96644.31
2022-08-05T08:33:20.193Z,96647.88
2022-08-05T08:38:41.028Z,96654.88
2022-08-05T08:45:20.621Z,96663.72
2022-08-05T08:50:14.290Z,96665.88
2022-08-05T08:56:01.901Z,96668.75
2022-08-05T09:01:15.609Z,96665.16
2022-08-05T09:06:37.701Z,96653.94
2022-08-05T09:12:14.343Z,96664.69
2022-08-05T09:17:45.738Z,96668.06
2022-08-05T09:23:18.562Z,96672.41
2022-08-05T09:28:41.087Z,96673.34
2022-08-05T09:34:05.127Z,96681.16
2022-08-05T09:39:41.917Z,96686.56
2022-08-05T09:46:02.694Z,96678.53
2022-08-05T09:50:51.655Z,96675.06
2022-08-05T09:56:13.390Z,96668.69
2022-08-05T10:01:36.934Z,96656.41
2022-08-05T10:07:01.546Z,96652.66
2022-08-05T10:12:49.990Z,96643.81
2022-08-05T10:18:22.534Z,96643.00
2022-08-05T10:23:55.479Z,96648.63
2022-08-05T10:29:22.002Z,96661.03
2022-08-05T10:34:45.605Z,96666.16
2022-08-05T10:40:19.548Z,96663.72
2022-08-05T10:45:42.349Z,96673.19
2022-08-05T10:51:22.489Z,96668.06
2022-08-05T10:56:52.923Z,96668.59
2022-08-05T11:02:37.656Z,96673.72
2022-08-05T11:08:02.680Z,96674.25
2022-08-05T11:13:54.854Z,96670.22
2022-08-05T11:20:10.226Z,96669.97
2022-08-05T11:26:04.815Z,96668.34
2022-08-05T11:31:58.330Z,96675.84
2022-08-05T11:38:28.524Z,96676.38
2022-08-05T11:44:05.093Z,96671.03
2022-08-05T11:49:09.971Z,96669.66
2022-08-05T11:54:34.890Z,96665.34
2022-08-05T11:59:55.871Z,96671.00
2022-08-05T12:05:36.434Z,96666.16
2022-08-05T12:11:05.479Z,96669.91
2022-08-05T12:16:28.887Z,96670.69
2022-08-05T12:21:51.113Z,96664.50
2022-08-05T12:27:25.350Z,96663.41
2022-08-05T12:32:53.663Z,96669.34
2022-08-05T12:38:18.424Z,96657.97
2022-08-05T12:43:55.072Z,96664.97
2022-08-05T12:49:16.191Z,96669.25
2022-08-05T12:54:41.208Z,96661.44
2022-08-05T13:02:00.762Z,96664.16
2022-08-05T13:05:42.958Z,96660.09
2022-08-05T13:11:04.154Z,96652.28
2022-08-05T13:16:27.715Z,96640.16
2022-08-05T13:21:52.585Z,96639.63
2022-08-05T13:27:37.489Z,96641.25
2022-08-05T13:33:01.392Z,96626.44
2022-08-05T13:38:31.056Z,96625.38
2022-08-05T13:43:55.528Z,96612.75
2022-08-05T13:49:15.945Z,96608.13
2022-08-05T13:54:36.488Z,96608.72
2022-08-05T14:00:01.858Z,96598.47
2022-08-05T14:06:24.780Z,96608.44
2022-08-05T14:11:20.489Z,96594.22
2022-08-05T14:16:43.265Z,96582.34
2022-08-05T14:22:12.124Z,96583.09
2022-08-05T14:27:33.049Z,96585.81
2022-08-05T14:32:54.182Z,96586.66
2022-08-05T14:38:32.341Z,96578.81
2022-08-05T14:44:02.551Z,96583.19
2022-08-05T14:49:56.418Z,96588.59
2022-08-05T14:55:14.003Z,96581.28
2022-08-05T15:00:39.207Z,96592.63
2022-08-05T15:06:20.064Z,96591.56
2022-08-05T15:11:52.656Z,96588.09
2022-08-05T15:17:45.602Z,96570.09
2022-08-05T15:22:55.071Z,96571.41
2022-08-05T15:28:16.739Z,96576.50
2022-08-05T15:34:05.063Z,96578.41
2022-08-05T15:41:01.993Z,96565.44
2022-08-05T15:44:59.588Z,96567.31
2022-08-05T15:50:20.929Z,96574.16
2022-08-05T15:56:02.934Z,96564.19
2022-08-05T16:01:29.456Z,96571.47
2022-08-05T16:06:50.476Z,96567.75
2022-08-05T16:12:11.462Z,96577.44
2022-08-05T16:17:32.681Z,96569.66
2022-08-05T16:22:53.342Z,96568.03
2022-08-05T16:28:15.632Z,96574.50
2022-08-05T16:33:41.334Z,96570.72
2022-08-05T16:39:02.507Z,96583.34
2022-08-05T16:44:25.769Z,96588.75
2022-08-05T16:49:47.186Z,96591.16
2022-08-05T16:55:14.345Z,96591.94
2022-08-05T17:00:37.739Z,96588.97
2022-08-05T17:06:00.516Z,96598.09
2022-08-05T17:11:23.761Z,96592.97
2022-08-05T17:16:46.270Z,96596.72
2022-08-05T17:22:25.142Z,96598.84
2022-08-05T17:27:46.596Z,96614.66
2022-08-05T17:33:07.850Z,96611.13
2022-08-05T17:38:29.424Z,96611.63
2022-08-05T17:43:53.223Z,96620.47
2022-08-05T17:49:14.266Z,96625.03
2022-08-05T17:54:37.535Z,96631.97
2022-08-05T18:00:03.078Z,96639.88
2022-08-05T18:05:28.234Z,96650.03
2022-08-05T18:10:56.203Z,96656.34
2022-08-05T18:16:18.088Z,96672.56
2022-08-05T18:22:09.353Z,96677.84
2022-08-05T18:27:22.414Z,96691.63
2022-08-05T18:32:43.062Z,96692.66
2022-08-05T18:38:26.309Z,96676.72
2022-08-05T18:43:48.687Z,96687.72
2022-08-05T18:49:30.392Z,96704.19
2022-08-05T18:54:51.511Z,96700.84
2022-08-05T19:00:20.267Z,96707.16
2022-08-05T19:06:11.658Z,96722.47
2022-08-05T19:11:27.893Z,96743.00
2022-08-05T19:16:49.649Z,96776.06
2022-08-05T19:22:12.480Z,96784.25
2022-08-05T19:27:39.061Z,96795.94
2022-08-05T19:33:00.513Z,96807.28
2022-08-05T19:38:26.432Z,96827.03
2022-08-05T19:44:05.347Z,96833.50
2022-08-05T19:54:27.225Z,96864.69
2022-08-05T20:05:28.683Z,96889.16
2022-08-05T20:11:04.278Z,96892.75
2022-08-05T20:16:26.533Z,96882.25
2022-08-05T20:21:48.605Z,96881.00
2022-08-05T20:27:11.664Z,96891.47
2022-08-05T20:32:32.381Z,96892.16
2022-08-05T20:38:06.227Z,96903.91
2022-08-05T20:43:57.571Z,96900.81
2022-08-05T20:49:09.604Z,96911.81
2022-08-05T20:54:42.819Z,96908.81
2022-08-05T21:00:34.961Z,96918.66
2022-08-05T21:05:57.269Z,96914.56
2022-08-05T21:12:08.890Z,96932.41
2022-08-05T21:17:00.851Z,96946.59
2022-08-05T21:22:23.322Z,96946.81
2022-08-05T21:27:47.525Z,96940.97
2022-08-05T21:37:53.436Z,96947.00
2022-08-05T21:43:17.848Z,96939.09
2022-08-05T21:48:45.783Z,96937.94
2022-08-05T21:54:06.913Z,96942.13
2022-08-05T21:59:48.061Z,96941.72
2022-08-05T22:05:12.444Z,96947.75
2022-08-05T22:10:33.100Z,96954.03
2022-08-05T22:16:02.729Z,96948.59
2022-08-05T22:21:32.056Z,96965.09
2022-08-05T22:27:13.961Z,96957.97
2022-08-05T22:32:37.242Z,96960.56
2022-08-05T22:38:01.001Z,96963.81
2022-08-05T22:43:37.015Z,96969.50
2022-08-05T22:48:58.856Z,96976.19
2022-08-05T22:54:19.591Z,96982.03
2022-08-05T22:59:51.836Z,96999.66
2022-08-05T23:05:15.425Z,96992.56
2022-08-05T23:10:35.887Z,96993.75
2022-08-05T23:16:00.165Z,96996.31
2022-08-05T23:21:21.248Z,97000.84
2022-08-05T23:26:41.828Z,97001.31
2022-08-05T23:32:05.470Z,97000.59
2022-08-05T23:37:26.618Z,97011.06
2022-08-05T23:42:54.789Z,97035.44
2022-08-05T23:48:15.584Z,97051.41
2022-08-05T23:53:46.942Z,97050.16
2022-08-05T23:59:07.703Z,97068.81
